Time;durP1;ratioP1;P1;durP2;ratioP2;P2;SDS_P1;SDS_P2;PMS_P1;PMS_P2;Temp;Humidity;BMP_temperature;BMP_pressure;BME280_temperature;BME280_humidity;BME280_pressure;Samples;Min_cycle;Max_cycle;Signal;HPM_P1;HPM_P2
2023/03/12 00:00:44;;;;;;;9.53;8.93;;;2.00;99.90;;;;;;4994022;28;20208;-63
2023/03/12 00:03:10;;;;;;;9.13;8.40;;;2.00;99.90;;;;;;4994705;28;20681;-63
2023/03/12 00:05:37;;;;;;;9.07;8.47;;;1.90;99.90;;;;;;4994487;28;20181;-63
2023/03/12 00:08:03;;;;;;;9.20;8.70;;;1.90;99.90;;;;;;4994491;28;20211;-63
2023/03/12 00:10:29;;;;;;;9.07;8.47;;;1.90;99.90;;;;;;4993885;28;20219;-63
2023/03/12 00:12:55;;;;;;;9.40;8.37;;;1.90;99.90;;;;;;4994010;28;20180;-64
2023/03/12 00:15:21;;;;;;;16.07;8.00;;;1.90;99.90;;;;;;4994275;28;20260;-64
2023/03/12 00:17:47;;;;;;;7.93;7.50;;;1.90;99.90;;;;;;4993693;28;20639;-63
2023/03/12 00:20:13;;;;;;;8.90;8.23;;;1.90;99.90;;;;;;4993583;28;20205;-64
2023/03/12 00:22:39;;;;;;;8.80;8.30;;;1.90;99.90;;;;;;4993815;28;20232;-63
2023/03/12 00:25:09;;;;;;;8.80;8.20;;;1.90;99.90;;;;;;4993656;28;20208;-63
2023/03/12 00:27:35;;;;;;;7.80;7.40;;;1.90;99.90;;;;;;4994393;28;20609;-64
2023/03/12 00:30:01;;;;;;;8.53;8.00;;;1.90;99.90;;;;;;4993625;28;20646;-62
2023/03/12 00:32:27;;;;;;;9.60;8.97;;;2.00;99.90;;;;;;4993776;28;20189;-63
2023/03/12 00:34:54;;;;;;;8.73;8.13;;;2.00;99.90;;;;;;4993740;28;20185;-62
2023/03/12 00:37:20;;;;;;;8.60;8.00;;;2.00;99.90;;;;;;4993890;28;20248;-63
2023/03/12 00:39:45;;;;;;;9.57;8.97;;;2.00;99.90;;;;;;4993512;28;20181;-63
2023/03/12 00:42:11;;;;;;;8.93;8.33;;;2.00;99.90;;;;;;4993874;28;20180;-64
2023/03/12 00:44:37;;;;;;;7.93;7.53;;;2.10;99.90;;;;;;4993816;28;20204;-64
2023/03/12 00:47:02;;;;;;;8.43;7.77;;;2.00;99.90;;;;;;4993531;28;20189;-64
2023/03/12 00:49:28;;;;;;;7.83;7.27;;;2.10;99.90;;;;;;4993231;28;20223;-64
2023/03/12 00:51:54;;;;;;;9.57;8.57;;;2.10;99.90;;;;;;4993399;28;20227;-63
2023/03/12 00:54:20;;;;;;;8.80;8.20;;;2.10;99.90;;;;;;4975885;28;20210;-64
2023/03/12 00:56:46;;;;;;;8.17;7.57;;;2.10;99.90;;;;;;4993597;28;20181;-64
2023/03/12 00:59:13;;;;;;;7.97;7.57;;;2.10;99.90;;;;;;4993365;28;20188;-64
2023/03/12 01:01:38;;;;;;;8.47;7.87;;;2.10;99.90;;;;;;4993384;28;20204;-62
2023/03/12 01:04:04;;;;;;;7.60;7.10;;;2.10;99.90;;;;;;4993421;28;20181;-63
2023/03/12 01:06:30;;;;;;;9.33;7.30;;;2.10;99.90;;;;;;4993153;28;20192;-63
2023/03/12 01:08:55;;;;;;;8.13;7.53;;;2.10;99.90;;;;;;4993281;28;20215;-63
2023/03/12 01:11:21;;;;;;;9.07;8.30;;;2.10;99.90;;;;;;4992740;28;20248;-63
2023/03/12 01:13:47;;;;;;;7.37;6.97;;;2.10;99.90;;;;;;4992981;28;20192;-64
2023/03/12 01:16:13;;;;;;;7.30;6.90;;;2.10;99.90;;;;;;4993303;28;20554;-64
2023/03/12 01:18:38;;;;;;;7.67;7.10;;;2.10;99.90;;;;;;4993011;28;20184;-64
2023/03/12 01:21:04;;;;;;;8.20;7.53;;;2.10;99.90;;;;;;4992563;28;20232;-64
2023/03/12 01:23:30;;;;;;;9.90;8.17;;;2.10;99.90;;;;;;4993290;28;20180;-64
2023/03/12 01:25:56;;;;;;;7.53;7.13;;;2.10;99.90;;;;;;4992915;28;20181;-64
2023/03/12 01:28:23;;;;;;;8.07;7.47;;;2.10;99.90;;;;;;4992954;28;20212;-64
2023/03/12 01:30:49;;;;;;;7.83;7.33;;;2.10;99.90;;;;;;4991255;28;20193;-64
2023/03/12 01:33:15;;;;;;;8.43;7.83;;;2.10;99.90;;;;;;4992674;28;20256;-64
2023/03/12 01:35:42;;;;;;;8.07;7.30;;;2.10;99.90;;;;;;4993079;28;20193;-63
2023/03/12 01:38:11;;;;;;;7.83;7.17;;;2.10;99.90;;;;;;4993012;28;20188;-63
2023/03/12 01:40:37;;;;;;;7.87;7.37;;;2.10;99.90;;;;;;4992104;28;20231;-64
2023/03/12 01:43:25;;;;;;;7.30;6.93;;;2.00;99.90;;;;;;4992868;28;20188;-64
2023/03/12 01:46:18;;;;;;;7.60;7.00;;;2.00;99.90;;;;;;4979987;28;20181;-64
2023/03/12 01:48:49;;;;;;;7.50;7.10;;;1.90;99.90;;;;;;4992521;28;20280;-63
2023/03/12 01:51:16;;;;;;;7.13;6.83;;;1.90;99.90;;;;;;4992038;28;20200;-64
2023/03/12 01:53:46;;;;;;;7.87;7.47;;;1.90;99.90;;;;;;4992537;28;20189;-63
2023/03/12 01:56:13;;;;;;;7.50;7.10;;;1.90;99.90;;;;;;4992463;28;20184;-63
2023/03/12 01:58:43;;;;;;;10.23;9.23;;;1.90;99.90;;;;;;4992450;28;20177;-63
2023/03/12 02:01:09;;;;;;;7.40;6.97;;;2.00;99.90;;;;;;4992026;28;20228;-63
2023/03/12 02:03:35;;;;;;;7.77;6.83;;;2.00;99.90;;;;;;4992332;28;20634;-63
2023/03/12 02:06:05;;;;;;;8.50;7.73;;;2.10;99.90;;;;;;4992326;28;20196;-63
2023/03/12 02:08:36;;;;;;;7.27;6.87;;;2.10;99.90;;;;;;4992533;28;20230;-63
2023/03/12 02:11:02;;;;;;;7.23;6.83;;;2.10;99.90;;;;;;4992306;28;20216;-63
2023/03/12 02:13:28;;;;;;;7.07;6.77;;;2.20;99.90;;;;;;4992395;28;20191;-63
2023/03/12 02:15:54;;;;;;;7.80;7.40;;;2.20;99.90;;;;;;4992006;28;20556;-64
2023/03/12 02:18:20;;;;;;;6.90;6.50;;;2.20;99.90;;;;;;4992190;28;20184;-64
2023/03/12 02:21:02;;;;;;;7.17;6.70;;;2.20;99.90;;;;;;4991709;28;20679;-64
2023/03/12 02:23:53;;;;;;;7.30;6.90;;;2.20;99.90;;;;;;4992443;28;20185;-64
2023/03/12 02:26:21;;;;;;;7.13;6.80;;;2.30;99.90;;;;;;4992182;28;20212;-64
2023/03/12 02:28:49;;;;;;;7.80;7.10;;;2.30;99.90;;;;;;4991204;28;20216;-64
2023/03/12 02:31:19;;;;;;;8.43;7.63;;;2.40;99.90;;;;;;4991387;28;20681;-64
2023/03/12 02:33:45;;;;;;;7.60;7.13;;;2.40;99.90;;;;;;4992129;28;20535;-65
2023/03/12 02:36:11;;;;;;;8.13;7.43;;;2.50;99.90;;;;;;4991617;28;20173;-62
2023/03/12 02:38:41;;;;;;;7.40;7.00;;;2.50;99.90;;;;;;4992083;28;20192;-63
2023/03/12 02:41:14;;;;;;;7.07;6.67;;;2.50;99.90;;;;;;4991065;28;20208;-63
2023/03/12 02:43:43;;;;;;;7.20;6.60;;;2.50;99.90;;;;;;4992092;28;20173;-63
2023/03/12 02:46:09;;;;;;;8.03;7.50;;;2.50;99.90;;;;;;4973652;28;20327;-63
2023/03/12 02:48:35;;;;;;;6.57;6.10;;;2.50;99.90;;;;;;4991766;28;20294;-62
2023/03/12 02:51:02;;;;;;;7.03;6.60;;;2.50;99.90;;;;;;4991115;28;20212;-63
2023/03/12 02:53:28;;;;;;;7.33;6.93;;;2.50;99.90;;;;;;4991890;28;20177;-63
2023/03/12 02:55:54;;;;;;;7.47;6.97;;;2.50;99.90;;;;;;4991783;28;20257;-63
2023/03/12 02:58:20;;;;;;;7.63;6.93;;;2.60;99.90;;;;;;4991882;28;20203;-63
2023/03/12 03:00:46;;;;;;;7.20;6.70;;;2.50;99.90;;;;;;4991330;28;20255;-63
2023/03/12 03:03:11;;;;;;;8.10;7.50;;;2.60;99.90;;;;;;4991715;28;20188;-63
2023/03/12 03:05:37;;;;;;;6.70;6.40;;;2.60;99.90;;;;;;4991460;28;20188;-63
2023/03/12 03:08:03;;;;;;;7.10;6.70;;;2.60;99.90;;;;;;4991605;28;20223;-63
2023/03/12 03:10:29;;;;;;;7.33;6.93;;;2.60;99.90;;;;;;4991492;28;20270;-62
2023/03/12 03:12:56;;;;;;;7.53;6.70;;;2.50;99.90;;;;;;4991543;28;20216;-62
2023/03/12 03:15:22;;;;;;;6.93;6.53;;;2.50;99.90;;;;;;4974434;28;20181;-63
2023/03/12 03:17:48;;;;;;;7.63;7.03;;;2.60;99.90;;;;;;4991659;28;20180;-63
2023/03/12 03:20:14;;;;;;;7.10;6.70;;;2.60;99.90;;;;;;4991344;28;20259;-63
2023/03/12 03:22:39;;;;;;;6.77;6.37;;;2.60;99.90;;;;;;4991658;28;20464;-63
2023/03/12 03:25:07;;;;;;;7.97;7.47;;;2.60;99.90;;;;;;4991043;28;20263;-63
2023/03/12 03:27:32;;;;;;;6.90;6.60;;;2.60;99.90;;;;;;4991417;28;20184;-63
2023/03/12 03:29:58;;;;;;;7.33;6.93;;;2.60;99.90;;;;;;4991064;28;20201;-63
2023/03/12 03:32:24;;;;;;;7.27;6.77;;;2.50;99.90;;;;;;4991662;28;20181;-63
2023/03/12 03:34:49;;;;;;;6.60;6.30;;;2.60;99.90;;;;;;4991466;28;20204;-63
2023/03/12 03:37:15;;;;;;;7.77;6.60;;;2.60;99.90;;;;;;4991254;28;20181;-63
2023/03/12 03:39:40;;;;;;;7.57;7.13;;;2.60;99.90;;;;;;4991065;28;20599;-63
2023/03/12 03:42:07;;;;;;;8.10;6.73;;;2.60;99.90;;;;;;4991430;28;20196;-62
2023/03/12 03:44:32;;;;;;;6.23;5.93;;;2.60;99.90;;;;;;4991448;28;20324;-62
2023/03/12 03:46:58;;;;;;;9.80;6.40;;;2.60;99.90;;;;;;4991277;28;20275;-64
2023/03/12 03:49:24;;;;;;;7.07;6.60;;;2.70;99.90;;;;;;4990779;28;20208;-65
2023/03/12 03:51:53;;;;;;;6.90;6.43;;;2.70;99.90;;;;;;4991188;28;20205;-66
2023/03/12 03:54:19;;;;;;;7.43;6.83;;;2.70;99.90;;;;;;4993135;28;20185;-65
2023/03/12 03:56:45;;;;;;;7.13;6.60;;;2.70;99.90;;;;;;4994787;28;20231;-66
2023/03/12 03:59:10;;;;;;;9.70;6.03;;;2.70;99.90;;;;;;4994372;28;20209;-64
2023/03/12 04:01:36;;;;;;;6.80;6.50;;;2.70;99.90;;;;;;4994425;28;20733;-65
2023/03/12 04:04:03;;;;;;;7.00;6.60;;;2.70;99.90;;;;;;4977340;28;20191;-65
2023/03/12 04:06:29;;;;;;;6.93;6.60;;;2.80;99.90;;;;;;4994351;28;20552;-65
2023/03/12 04:08:55;;;;;;;7.83;7.23;;;2.80;99.90;;;;;;4994724;28;20217;-65
2023/03/12 04:11:22;;;;;;;7.47;7.07;;;2.80;99.90;;;;;;4993580;28;20667;-65
2023/03/12 04:13:48;;;;;;;7.13;6.63;;;2.90;99.90;;;;;;4994678;28;20181;-62
2023/03/12 04:16:14;;;;;;;6.43;5.93;;;2.90;99.90;;;;;;4994266;28;20200;-63
2023/03/12 04:18:40;;;;;;;6.30;6.00;;;2.90;99.90;;;;;;4994216;28;20185;-63
2023/03/12 04:21:07;;;;;;;6.33;6.03;;;2.90;99.90;;;;;;4993561;28;20200;-63
2023/03/12 04:23:34;;;;;;;9.20;6.33;;;2.90;99.90;;;;;;4994425;28;20211;-62
2023/03/12 04:25:59;;;;;;;6.90;6.50;;;2.90;99.90;;;;;;4994323;28;20635;-63
2023/03/12 04:28:25;;;;;;;7.47;6.87;;;2.90;99.90;;;;;;4994047;28;20209;-63
2023/03/12 04:30:59;;;;;;;6.67;6.27;;;2.90;99.90;;;;;;4993340;28;20751;-63
2023/03/12 04:33:30;;;;;;;6.30;6.00;;;2.80;99.90;;;;;;4993991;28;20188;-63
2023/03/12 04:35:56;;;;;;;6.43;6.07;;;2.90;99.90;;;;;;4993658;28;20216;-63
2023/03/12 04:38:23;;;;;;;6.33;6.03;;;2.90;99.90;;;;;;4994084;28;20516;-63
2023/03/12 04:41:00;;;;;;;6.80;6.40;;;2.90;99.90;;;;;;4993428;28;20205;-63
2023/03/12 04:43:27;;;;;;;6.63;6.33;;;2.90;99.90;;;;;;4994239;28;20180;-63
2023/03/12 04:45:53;;;;;;;7.07;6.73;;;2.80;99.90;;;;;;4993652;28;20242;-63
2023/03/12 04:48:19;;;;;;;6.37;6.07;;;2.80;99.90;;;;;;4993837;28;20213;-63
2023/03/12 04:50:44;;;;;;;5.93;5.70;;;2.80;99.90;;;;;;4993140;28;20550;-65
2023/03/12 04:53:10;;;;;;;6.47;6.07;;;2.80;99.90;;;;;;4993835;28;20531;-63
2023/03/12 04:55:36;;;;;;;7.37;6.87;;;2.70;99.90;;;;;;4993684;28;20176;-63
2023/03/12 04:58:02;;;;;;;6.73;6.23;;;2.70;99.90;;;;;;4993709;28;20181;-63
2023/03/12 05:00:27;;;;;;;6.97;6.60;;;2.70;99.90;;;;;;4992874;28;20232;-63
2023/03/12 05:02:53;;;;;;;8.20;7.80;;;2.70;99.90;;;;;;4993391;28;20184;-63
2023/03/12 05:05:19;;;;;;;6.50;6.20;;;2.60;99.90;;;;;;4993268;28;20177;-65
2023/03/12 05:07:45;;;;;;;7.30;6.50;;;2.60;99.90;;;;;;4993248;28;20207;-63
2023/03/12 05:10:10;;;;;;;6.53;6.13;;;2.50;99.90;;;;;;4992966;28;20566;-63
2023/03/12 05:12:36;;;;;;;6.90;6.30;;;2.50;99.90;;;;;;4993026;28;20179;-63
2023/03/12 05:15:02;;;;;;;6.60;6.30;;;2.40;99.90;;;;;;4993127;28;20562;-63
2023/03/12 05:17:27;;;;;;;14.30;6.97;;;2.40;99.90;;;;;;4993155;28;20173;-63
2023/03/12 05:19:53;;;;;;;6.90;6.40;;;2.40;99.90;;;;;;4992223;28;21981;-63
2023/03/12 05:22:18;;;;;;;11.03;8.37;;;2.40;99.90;;;;;;4992200;28;20189;-65
2023/03/12 05:24:44;;;;;;;7.10;6.73;;;2.40;99.90;;;;;;4992060;28;20197;-63
2023/03/12 05:27:10;;;;;;;7.80;7.30;;;2.40;99.90;;;;;;4992044;28;20177;-63
2023/03/12 05:29:36;;;;;;;7.00;6.60;;;2.30;99.90;;;;;;4992245;28;20208;-65
2023/03/12 05:32:02;;;;;;;6.97;6.67;;;2.30;99.90;;;;;;4992479;28;20188;-65
2023/03/12 05:34:29;;;;;;;6.93;6.63;;;2.30;99.90;;;;;;4992753;28;20200;-63
2023/03/12 05:36:58;;;;;;;7.33;7.03;;;2.30;99.90;;;;;;4992796;28;20211;-63
2023/03/12 05:39:25;;;;;;;8.03;7.73;;;2.30;99.90;;;;;;4992424;28;20184;-63
2023/03/12 05:41:55;;;;;;;7.60;7.30;;;2.20;99.90;;;;;;4991933;28;20209;-65
2023/03/12 05:44:21;;;;;;;8.07;7.70;;;2.20;99.90;;;;;;4992606;28;20177;-63
2023/03/12 05:46:46;;;;;;;7.67;7.30;;;2.20;99.90;;;;;;4992479;28;20177;-63
2023/03/12 05:49:12;;;;;;;8.50;8.03;;;2.20;99.90;;;;;;4991746;28;20710;-63
2023/03/12 05:51:37;;;;;;;8.00;7.50;;;2.20;99.90;;;;;;4992102;28;20204;-63
2023/03/12 05:54:03;;;;;;;7.17;6.73;;;2.20;99.90;;;;;;4992562;28;20180;-63
2023/03/12 05:56:29;;;;;;;7.37;7.03;;;2.20;99.90;;;;;;4992477;28;20180;-63
2023/03/12 05:58:55;;;;;;;7.17;6.87;;;2.20;99.90;;;;;;4992372;28;20185;-64
2023/03/12 06:01:24;;;;;;;7.07;6.77;;;2.20;99.90;;;;;;4991837;28;20570;-63
2023/03/12 06:03:50;;;;;;;7.20;6.80;;;2.20;99.90;;;;;;4975369;28;20292;-63
2023/03/12 06:06:16;;;;;;;7.07;6.67;;;2.20;99.90;;;;;;4992008;28;20755;-63
2023/03/12 06:08:42;;;;;;;7.87;7.17;;;2.30;99.90;;;;;;4992215;28;20212;-63
2023/03/12 06:11:08;;;;;;;7.33;7.03;;;2.30;99.90;;;;;;4991484;28;20200;-65
2023/03/12 06:13:33;;;;;;;8.17;7.63;;;2.30;99.90;;;;;;4992540;28;20193;-64
2023/03/12 06:16:05;;;;;;;7.80;7.17;;;2.30;99.90;;;;;;4990810;28;20681;-64
2023/03/12 06:18:32;;;;;;;7.27;6.87;;;2.30;99.90;;;;;;4992158;28;20230;-64
2023/03/12 06:21:31;;;;;;;8.03;7.47;;;2.30;99.90;;;;;;4991650;28;20279;-65
2023/03/12 06:23:57;;;;;;;7.97;7.57;;;2.30;99.90;;;;;;4970651;28;20196;-64
2023/03/12 06:26:24;;;;;;;7.33;6.97;;;2.30;99.90;;;;;;4991765;28;20184;-64
2023/03/12 06:28:50;;;;;;;8.37;7.87;;;2.40;99.90;;;;;;4991660;28;20227;-64
2023/03/12 06:31:16;;;;;;;7.90;7.30;;;2.40;99.90;;;;;;4973644;28;20291;-64
2023/03/12 06:33:42;;;;;;;8.43;7.70;;;2.40;99.90;;;;;;4992015;28;20235;-64
2023/03/12 06:36:09;;;;;;;8.07;7.73;;;2.40;99.90;;;;;;4992179;28;20176;-64
2023/03/12 06:38:36;;;;;;;8.37;7.80;;;2.40;99.90;;;;;;4992171;28;20187;-63
2023/03/12 06:41:10;;;;;;;12.23;7.87;;;2.40;99.90;;;;;;4991455;28;20204;-64
2023/03/12 06:43:37;;;;;;;7.43;7.13;;;2.40;99.90;;;;;;4992160;28;20254;-64
2023/03/12 06:46:05;;;;;;;7.37;7.07;;;2.40;99.90;;;;;;4991846;28;20246;-64
2023/03/12 06:48:32;;;;;;;8.27;7.87;;;2.50;99.90;;;;;;4991830;28;20212;-64
2023/03/12 06:50:58;;;;;;;6.77;6.47;;;2.50;99.90;;;;;;4991224;28;20239;-64
2023/03/12 06:53:24;;;;;;;6.63;6.33;;;2.60;99.90;;;;;;4991982;28;20184;-64
2023/03/12 06:55:51;;;;;;;13.13;8.20;;;2.60;99.90;;;;;;4991560;28;20173;-63
2023/03/12 06:58:17;;;;;;;7.77;7.37;;;2.70;99.90;;;;;;4991910;28;20181;-64
2023/03/12 07:00:42;;;;;;;9.00;8.50;;;2.70;99.90;;;;;;4991334;28;20197;-64
2023/03/12 07:03:08;;;;;;;8.67;8.27;;;2.80;99.90;;;;;;4991732;28;20176;-63
2023/03/12 07:05:34;;;;;;;7.93;7.40;;;2.90;99.90;;;;;;4991717;28;20520;-64
2023/03/12 07:08:00;;;;;;;7.63;6.80;;;2.90;99.90;;;;;;4991187;28;20697;-64
2023/03/12 07:10:28;;;;;;;7.13;6.57;;;3.00;99.90;;;;;;4991006;28;20209;-64
2023/03/12 07:12:55;;;;;;;7.13;6.83;;;3.00;99.90;;;;;;4991944;28;20173;-64
2023/03/12 07:15:21;;;;;;;7.70;7.10;;;3.00;99.90;;;;;;4991520;28;20173;-64
2023/03/12 07:17:46;;;;;;;7.13;6.83;;;3.10;99.90;;;;;;4991608;28;20247;-64
2023/03/12 07:20:12;;;;;;;8.40;7.90;;;3.10;99.90;;;;;;4991286;28;20236;-64
2023/03/12 07:22:38;;;;;;;7.40;6.93;;;3.10;99.90;;;;;;4989799;28;20180;-64
2023/03/12 07:25:04;;;;;;;7.73;7.43;;;3.10;99.90;;;;;;4991274;28;20192;-63
2023/03/12 07:27:29;;;;;;;8.23;7.83;;;3.20;99.90;;;;;;4992174;28;20200;-64
2023/03/12 07:29:55;;;;;;;9.87;9.07;;;3.20;99.90;;;;;;4994793;28;20205;-63
2023/03/12 07:32:21;;;;;;;7.80;7.40;;;3.30;99.90;;;;;;4995160;28;20215;-63
2023/03/12 07:34:46;;;;;;;7.90;7.30;;;3.30;99.90;;;;;;4994904;28;20639;-64
2023/03/12 07:37:12;;;;;;;8.10;7.60;;;3.30;99.90;;;;;;4995144;28;20177;-64
2023/03/12 07:39:38;;;;;;;8.63;8.13;;;3.40;99.90;;;;;;4995010;28;20189;-63
2023/03/12 07:42:03;;;;;;;10.00;9.50;;;3.50;99.90;;;;;;4994590;28;20188;-64
2023/03/12 07:44:29;;;;;;;10.60;9.67;;;3.50;99.90;;;;;;4994886;28;20189;-64
2023/03/12 07:46:54;;;;;;;9.50;9.03;;;3.50;99.90;;;;;;4994494;28;20196;-64
2023/03/12 07:49:20;;;;;;;9.33;8.73;;;3.50;99.90;;;;;;4994548;28;20313;-64
2023/03/12 07:51:46;;;;;;;8.80;8.30;;;3.50;99.90;;;;;;4994500;28;20196;-63
2023/03/12 07:54:11;;;;;;;9.03;8.53;;;3.60;99.90;;;;;;4994648;28;20192;-64
2023/03/12 07:56:37;;;;;;;7.90;7.50;;;3.60;99.90;;;;;;4994647;28;20184;-64
2023/03/12 07:59:03;;;;;;;8.73;8.23;;;3.60;99.90;;;;;;4994447;28;20272;-63
2023/03/12 08:01:31;;;;;;;8.37;7.67;;;3.60;99.90;;;;;;4994039;28;20259;-63
2023/03/12 08:04:01;;;;;;;8.97;8.47;;;3.60;99.90;;;;;;4994745;28;20718;-64
2023/03/12 08:06:27;;;;;;;9.10;8.70;;;3.70;99.90;;;;;;4994577;28;20235;-64
2023/03/12 08:08:53;;;;;;;10.30;9.70;;;3.70;99.90;;;;;;4994316;28;20213;-64
2023/03/12 08:11:19;;;;;;;8.87;8.47;;;3.70;99.90;;;;;;4994462;28;20299;-64
2023/03/12 08:13:45;;;;;;;8.73;8.23;;;3.80;99.90;;;;;;4993892;28;20180;-64
2023/03/12 08:16:10;;;;;;;9.13;8.50;;;3.80;99.90;;;;;;4994312;28;20177;-63
2023/03/12 08:18:37;;;;;;;8.63;8.13;;;3.80;99.90;;;;;;4994031;28;20542;-63
2023/03/12 08:21:02;;;;;;;8.90;8.30;;;3.90;99.90;;;;;;4993842;28;20208;-64
2023/03/12 08:23:28;;;;;;;8.93;8.53;;;3.90;99.90;;;;;;4994053;28;20251;-64
2023/03/12 08:25:54;;;;;;;10.23;9.70;;;3.90;99.90;;;;;;4993903;28;20219;-64
2023/03/12 08:28:21;;;;;;;8.50;7.97;;;3.80;99.90;;;;;;4993371;28;20208;-63
2023/03/12 08:30:48;;;;;;;9.27;8.73;;;3.80;99.90;;;;;;4993275;28;20259;-64
2023/03/12 08:33:14;;;;;;;10.23;9.73;;;3.80;99.90;;;;;;4993995;28;20183;-65
2023/03/12 08:35:40;;;;;;;9.53;9.10;;;3.80;99.90;;;;;;4994170;28;20682;-64
2023/03/12 08:38:06;;;;;;;10.37;9.53;;;3.80;99.90;;;;;;4993948;28;20268;-64
2023/03/12 08:40:31;;;;;;;10.73;10.17;;;3.90;99.90;;;;;;4993416;28;20203;-64
2023/03/12 08:42:57;;;;;;;10.83;10.20;;;3.90;99.90;;;;;;4993603;28;20193;-65
2023/03/12 08:45:23;;;;;;;9.23;8.63;;;3.90;99.90;;;;;;4993951;28;20177;-65
2023/03/12 08:47:49;;;;;;;9.80;9.00;;;4.00;99.90;;;;;;4993719;28;20276;-64
2023/03/12 08:50:16;;;;;;;10.23;9.47;;;4.00;99.90;;;;;;4995675;28;20196;-65
2023/03/12 08:52:42;;;;;;;8.37;7.83;;;4.00;99.90;;;;;;4993875;28;20320;-65
2023/03/12 08:55:09;;;;;;;9.43;8.87;;;4.10;99.90;;;;;;4993930;28;20230;-64
2023/03/12 08:57:35;;;;;;;10.23;9.67;;;4.20;99.90;;;;;;4993112;28;20291;-65
2023/03/12 09:00:04;;;;;;;8.30;7.90;;;4.20;99.90;;;;;;4993301;28;20284;-65
2023/03/12 09:02:29;;;;;;;7.77;7.37;;;4.20;99.90;;;;;;4992014;28;20180;-65
2023/03/12 09:04:55;;;;;;;8.03;7.60;;;4.20;99.90;;;;;;4993294;28;20647;-64
2023/03/12 09:07:21;;;;;;;11.73;8.10;;;4.10;99.90;;;;;;4993428;28;20192;-65
2023/03/12 09:09:47;;;;;;;8.30;7.90;;;4.10;99.90;;;;;;4992595;28;20295;-65
2023/03/12 09:12:12;;;;;;;7.93;7.47;;;4.10;99.90;;;;;;4976058;28;20280;-65
2023/03/12 09:14:38;;;;;;;8.77;8.27;;;4.10;99.90;;;;;;4993228;28;20267;-65
2023/03/12 09:17:04;;;;;;;8.40;7.83;;;4.20;99.90;;;;;;4976023;28;20239;-65
2023/03/12 09:19:30;;;;;;;10.77;7.20;;;4.20;99.90;;;;;;4993228;28;20185;-65
2023/03/12 09:21:56;;;;;;;7.00;6.60;;;4.20;99.90;;;;;;4993066;28;20283;-65
2023/03/12 09:24:22;;;;;;;7.57;7.07;;;4.30;99.90;;;;;;4992960;28;20193;-65
2023/03/12 09:26:48;;;;;;;8.23;7.63;;;4.40;99.90;;;;;;4992996;28;20181;-65
2023/03/12 09:29:13;;;;;;;7.13;6.73;;;4.50;99.90;;;;;;4992736;28;20554;-65
2023/03/12 09:31:39;;;;;;;7.47;6.93;;;4.50;99.90;;;;;;4992991;28;20197;-66
2023/03/12 09:34:05;;;;;;;8.03;7.53;;;4.60;99.90;;;;;;4991740;28;20544;-65
2023/03/12 09:36:31;;;;;;;6.57;6.23;;;4.70;99.90;;;;;;4991681;28;20177;-65
2023/03/12 09:38:56;;;;;;;7.77;7.00;;;4.70;99.90;;;;;;4975634;28;20187;-65
2023/03/12 09:41:25;;;;;;;8.77;8.27;;;4.80;99.90;;;;;;4992282;28;20209;-65
2023/03/12 09:44:01;;;;;;;9.17;8.37;;;4.80;99.90;;;;;;4975121;28;20711;-66
2023/03/12 09:46:40;;;;;;;7.77;7.03;;;4.80;99.90;;;;;;4992934;28;20181;-65
2023/03/12 09:49:16;;;;;;;6.93;6.53;;;4.90;99.90;;;;;;4992555;28;20201;-65
2023/03/12 09:51:46;;;;;;;7.00;6.63;;;4.90;99.90;;;;;;4991739;28;20207;-65
2023/03/12 09:54:45;;;;;;;8.20;7.40;;;4.90;99.90;;;;;;4992604;28;20185;-66
2023/03/12 09:57:18;;;;;;;8.97;8.37;;;4.90;99.90;;;;;;4992650;28;20180;-65
2023/03/12 09:59:44;;;;;;;7.60;7.10;;;5.00;99.90;;;;;;4991787;28;20719;-65
2023/03/12 10:02:27;;;;;;;7.63;7.13;;;5.00;99.90;;;;;;4974965;28;20185;-66
2023/03/12 10:05:05;;;;;;;7.57;6.73;;;5.00;99.90;;;;;;4992508;28;20180;-65
2023/03/12 10:07:54;;;;;;;10.27;9.57;;;5.10;99.90;;;;;;4992234;28;20195;-65
2023/03/12 10:10:47;;;;;;;7.30;6.80;;;5.20;99.90;;;;;;4992272;28;20217;-66
2023/03/12 10:13:35;;;;;;;6.83;6.23;;;5.30;99.90;;;;;;4992357;28;20212;-65
2023/03/12 10:16:28;;;;;;;7.40;6.90;;;5.40;99.90;;;;;;4992408;28;20307;-64
2023/03/12 10:19:31;;;;;;;7.20;6.73;;;5.40;99.90;;;;;;4991984;28;20187;-65
2023/03/12 10:22:13;;;;;;;7.83;7.13;;;5.50;99.90;;;;;;4992016;28;20200;-64
2023/03/12 10:24:47;;;;;;;9.60;9.07;;;5.50;99.90;;;;;;4972922;28;20178;-65
2023/03/12 10:27:15;;;;;;;8.27;7.67;;;5.60;99.90;;;;;;4974435;28;20184;-64
2023/03/12 10:29:45;;;;;;;9.43;8.73;;;5.70;99.90;;;;;;4991662;28;20215;-65
2023/03/12 10:32:10;;;;;;;7.20;6.70;;;5.70;99.90;;;;;;4991734;28;20177;-66
2023/03/12 10:34:55;;;;;;;8.50;7.90;;;5.90;99.90;;;;;;4991680;28;20243;-64
2023/03/12 10:37:53;;;;;;;9.30;8.60;;;6.00;99.90;;;;;;4991734;28;20192;-64
2023/03/12 10:40:32;;;;;;;8.30;7.80;;;6.10;99.90;;;;;;4991545;28;20243;-65
2023/03/12 10:42:59;;;;;;;8.30;7.57;;;6.20;99.90;;;;;;4991883;28;20302;-65
2023/03/12 10:45:41;;;;;;;7.97;7.37;;;6.40;99.90;;;;;;4992068;28;20188;-64
2023/03/12 10:48:10;;;;;;;6.97;6.57;;;6.50;99.90;;;;;;4991898;28;20204;-65
2023/03/12 10:50:38;;;;;;;7.67;7.17;;;6.60;99.90;;;;;;4991503;28;20188;-65
2023/03/12 10:53:22;;;;;;;7.77;7.17;;;6.70;99.90;;;;;;4991535;28;20185;-65
2023/03/12 10:56:08;;;;;;;7.77;7.27;;;6.80;99.90;;;;;;4991829;28;20628;-65
2023/03/12 10:58:39;;;;;;;8.50;7.90;;;6.90;99.90;;;;;;4992153;28;20268;-65
2023/03/12 11:01:15;;;;;;;9.27;8.60;;;7.00;99.90;;;;;;4991458;28;20204;-64
2023/03/12 11:03:47;;;;;;;10.80;10.00;;;7.10;99.90;;;;;;4976915;28;20295;-65
2023/03/12 11:06:22;;;;;;;9.70;8.90;;;7.20;99.90;;;;;;4996107;28;20708;-65
2023/03/12 11:09:04;;;;;;;9.10;8.33;;;7.40;99.90;;;;;;4995725;28;20203;-65
2023/03/12 11:11:33;;;;;;;9.63;8.73;;;7.80;99.90;;;;;;4995323;28;20572;-64
2023/03/12 11:14:11;;;;;;;10.87;7.20;;;8.20;99.90;;;;;;4995735;28;20256;-64
2023/03/12 11:16:37;;;;;;;10.40;8.30;;;8.50;99.90;;;;;;4995628;28;20185;-64
2023/03/12 11:19:04;;;;;;;10.10;8.63;;;8.70;99.90;;;;;;4994563;28;20673;-64
2023/03/12 11:21:35;;;;;;;14.20;9.33;;;8.90;99.90;;;;;;4994348;28;20347;-65
2023/03/12 11:24:11;;;;;;;10.23;8.30;;;9.00;99.90;;;;;;4994551;28;20693;-64
2023/03/12 11:26:37;;;;;;;13.77;9.60;;;9.10;99.90;;;;;;4995814;28;20199;-65
2023/03/12 11:29:17;;;;;;;10.47;9.60;;;9.20;99.90;;;;;;4995095;28;20201;-65
2023/03/12 11:31:54;;;;;;;9.93;8.90;;;9.30;99.90;;;;;;4994980;28;20212;-64
2023/03/12 11:34:29;;;;;;;13.37;9.13;;;9.40;99.90;;;;;;4995189;28;20187;-64
2023/03/12 11:36:59;;;;;;;13.40;8.63;;;9.60;99.90;;;;;;4995310;28;20323;-64
2023/03/12 11:39:47;;;;;;;10.23;8.90;;;9.70;99.90;;;;;;4994693;28;20324;-65
2023/03/12 11:42:28;;;;;;;16.63;9.07;;;9.70;99.90;;;;;;4995358;28;20192;-64
2023/03/12 11:45:18;;;;;;;9.80;8.33;;;9.80;99.90;;;;;;4995220;28;20721;-65
2023/03/12 11:47:50;;;;;;;10.40;8.47;;;9.90;99.90;;;;;;4995135;28;20187;-64
2023/03/12 11:50:29;;;;;;;9.33;8.27;;;10.10;99.90;;;;;;4994504;28;20690;-64
2023/03/12 11:53:16;;;;;;;13.83;8.30;;;10.20;99.90;;;;;;4995139;28;20173;-64
2023/03/12 11:55:55;;;;;;;13.10;7.43;;;10.20;99.90;;;;;;4994958;28;20181;-65
2023/03/12 11:58:35;;;;;;;11.07;7.83;;;10.30;99.90;;;;;;4995124;28;20275;-64
2023/03/12 12:01:19;;;;;;;8.57;7.87;;;10.40;99.90;;;;;;4976917;28;20208;-64
2023/03/12 12:03:45;;;;;;;8.67;7.63;;;10.50;99.90;;;;;;4994466;28;20181;-64
2023/03/12 12:06:19;;;;;;;10.80;8.43;;;10.80;99.90;;;;;;4977026;28;20188;-64
2023/03/12 12:09:12;;;;;;;10.10;7.63;;;11.00;99.90;;;;;;4994705;28;20199;-64
2023/03/12 12:12:11;;;;;;;7.20;6.53;;;11.40;99.90;;;;;;4974819;28;20210;-64
2023/03/12 12:15:07;;;;;;;13.70;8.03;;;11.90;99.90;;;;;;4980996;28;20181;-65
2023/03/12 12:17:54;;;;;;;11.90;7.80;;;12.40;99.90;;;;;;4994655;28;20264;-65
2023/03/12 12:20:41;;;;;;;8.13;7.20;;;12.90;99.90;;;;;;4994295;28;20247;-65
2023/03/12 12:23:16;;;;;;;12.37;8.03;;;13.20;99.90;;;;;;4994469;28;20173;-64
2023/03/12 12:25:51;;;;;;;8.10;6.30;;;13.20;99.90;;;;;;4994366;28;20191;-65
2023/03/12 12:28:44;;;;;;;11.07;7.23;;;13.30;99.90;;;;;;4994289;28;20266;-64
2023/03/12 12:31:32;;;;;;;8.57;7.10;;;13.30;99.90;;;;;;4994210;28;20188;-65
2023/03/12 12:34:06;;;;;;;15.23;7.83;;;13.30;99.90;;;;;;4994475;28;20177;-65
2023/03/12 12:36:34;;;;;;;7.93;7.03;;;13.20;99.90;;;;;;4994218;28;20548;-65
2023/03/12 12:39:24;;;;;;;7.57;7.07;;;13.20;99.90;;;;;;4993884;28;20571;-64
2023/03/12 12:41:53;;;;;;;6.70;6.00;;;13.10;99.90;;;;;;4992760;28;20212;-65
2023/03/12 12:44:23;;;;;;;9.57;6.17;;;13.10;99.90;;;;;;4993038;28;20177;-65
2023/03/12 12:47:04;;;;;;;11.90;6.77;;;13.00;99.90;;;;;;4994004;28;20227;-65
2023/03/12 12:49:49;;;;;;;9.17;7.47;;;13.10;99.90;;;;;;4974479;28;20216;-65
2023/03/12 12:52:21;;;;;;;8.33;5.90;;;13.40;99.90;;;;;;4976905;28;20212;-65
2023/03/12 12:55:18;;;;;;;14.73;8.57;;;13.90;99.90;;;;;;4993849;28;20264;-65
2023/03/12 12:57:49;;;;;;;9.70;7.57;;;14.20;99.90;;;;;;4993662;28;20209;-65
2023/03/12 13:00:39;;;;;;;9.90;7.07;;;14.50;99.90;;;;;;4993742;28;20201;-66
2023/03/12 13:03:04;;;;;;;17.30;10.30;;;14.50;99.90;;;;;;4975445;28;20192;-65
2023/03/12 13:05:36;;;;;;;20.33;11.23;;;14.30;99.90;;;;;;4993135;28;20256;-65
2023/03/12 13:08:03;;;;;;;7.23;6.07;;;14.00;99.90;;;;;;4993682;28;20291;-65